Aviation Digital Data Service (ADDS)

Output produced by METARs form (0008 UTC 28 November 2014)
found at http://www.aviationweather.gov/adds/metars/
 
KALB 272320Z 2800/2824 33005KT 3SM -SN BR FEW008 BKN027 OVC035 
     TEMPO 2800/2802 2SM -SN BR OVC008 
     FM280400 32003KT P6SM VCSH OVC035 
     FM281400 31010G15KT P6SM BKN045